createdAt,value
2023-05-20T00:01:52.709Z,54.89
2023-05-20T00:04:47.854Z,55.40
2023-05-20T00:07:19.177Z,54.68
2023-05-20T00:09:49.533Z,55.35
2023-05-20T00:12:27.030Z,54.41
2023-05-20T01:17:27.847Z,60.07
2023-05-20T01:24:35.449Z,60.09
2023-05-20T02:09:25.905Z,63.14
2023-05-20T02:21:28.582Z,62.01
2023-05-20T02:24:35.491Z,62.79
2023-05-20T02:27:00.085Z,63.32
2023-05-20T02:29:28.974Z,63.87
2023-05-20T02:31:57.555Z,63.92
2023-05-20T02:34:32.708Z,64.20
2023-05-20T02:37:29.868Z,63.65
2023-05-20T02:42:57.477Z,65.37
2023-05-20T02:45:31.493Z,65.19
2023-05-20T02:54:30.213Z,65.91
2023-05-20T03:00:06.235Z,63.12
2023-05-20T03:05:28.968Z,65.31
2023-05-20T03:08:38.602Z,65.61
2023-05-20T03:11:07.988Z,66.37
2023-05-20T03:13:37.122Z,66.46
2023-05-20T03:16:30.192Z,66.27
2023-05-20T03:20:01.847Z,67.30
2023-05-20T03:22:01.860Z,68.18
2023-05-20T03:27:00.065Z,68.96
2023-05-20T03:29:32.240Z,69.25
2023-05-20T03:32:06.355Z,69.31
2023-05-20T03:35:30.027Z,70.10
2023-05-20T03:43:32.076Z,70.29
2023-05-20T03:55:02.503Z,70.98
2023-05-20T03:57:33.151Z,70.50
2023-05-20T04:00:03.129Z,70.65
2023-05-20T04:02:32.698Z,70.65
2023-05-20T04:05:02.453Z,70.76
2023-05-20T04:07:33.623Z,71.46
2023-05-20T04:10:01.948Z,71.05
2023-05-20T04:15:12.271Z,71.72
2023-05-20T04:18:04.264Z,72.02
2023-05-20T04:20:33.154Z,72.17
2023-05-20T04:23:04.452Z,72.31
2023-05-20T04:25:32.465Z,73.46
2023-05-20T04:28:04.081Z,73.21
2023-05-20T04:33:05.953Z,74.18
2023-05-20T04:35:36.116Z,74.63
2023-05-20T04:42:05.729Z,73.83
2023-05-20T04:44:37.109Z,73.66
2023-05-20T04:47:05.560Z,74.07
2023-05-20T04:49:36.092Z,73.95
2023-05-20T04:52:05.651Z,73.73
2023-05-20T04:57:47.524Z,73.81
2023-05-20T05:00:26.630Z,74.61
2023-05-20T05:03:05.057Z,75.13
2023-05-20T05:06:03.860Z,75.17
2023-05-20T05:08:35.082Z,74.77
2023-05-20T05:11:07.746Z,74.93
2023-05-20T05:13:42.091Z,74.36
2023-05-20T05:16:10.470Z,73.95
2023-05-20T05:30:38.387Z,75.00
2023-05-20T05:33:07.273Z,75.43
2023-05-20T05:35:46.298Z,76.23
2023-05-20T05:38:15.399Z,76.27
2023-05-20T05:44:05.802Z,76.13
2023-05-20T05:51:08.082Z,76.20
2023-05-20T05:57:06.702Z,75.30
2023-05-20T06:00:06.014Z,75.73
2023-05-20T06:03:06.459Z,75.37
2023-05-20T06:06:06.400Z,75.81
2023-05-20T06:09:08.410Z,76.27
2023-05-20T06:12:07.458Z,76.67
2023-05-20T06:14:38.528Z,76.64
2023-05-20T06:17:08.175Z,76.89
2023-05-20T06:20:06.820Z,76.86
2023-05-20T06:22:38.323Z,77.12
2023-05-20T06:25:08.681Z,76.77
2023-05-20T06:34:38.927Z,76.95
2023-05-20T06:37:08.650Z,76.72
2023-05-20T06:39:37.134Z,76.97
2023-05-20T06:42:09.122Z,76.80
2023-05-20T06:47:12.665Z,76.99
2023-05-20T06:50:08.687Z,77.33
2023-05-20T06:52:42.274Z,76.86
2023-05-20T06:55:13.710Z,77.20
2023-05-20T06:58:12.835Z,77.00
2023-05-20T07:03:12.568Z,77.18
2023-05-20T07:06:09.740Z,77.46
2023-05-20T07:15:08.840Z,78.51
2023-05-20T07:18:09.367Z,79.19
2023-05-20T07:20:40.851Z,78.66
2023-05-20T07:23:09.376Z,78.93
2023-05-20T07:26:09.871Z,79.15
2023-05-20T07:31:13.469Z,78.24
2023-05-20T07:34:12.371Z,78.08
2023-05-20T07:36:40.890Z,78.16
2023-05-20T07:39:14.378Z,78.10
2023-05-20T07:42:12.023Z,78.00
2023-05-20T07:45:12.317Z,78.15
2023-05-20T07:51:10.025Z,78.81
2023-05-20T07:56:12.594Z,79.11
2023-05-20T07:59:11.965Z,79.58
2023-05-20T08:02:10.827Z,79.08
2023-05-20T08:04:42.047Z,78.88
2023-05-20T08:07:13.573Z,78.88
2023-05-20T08:09:42.073Z,79.07
2023-05-20T08:12:10.366Z,78.92
2023-05-20T08:15:13.076Z,79.61
2023-05-20T08:17:41.757Z,79.76
2023-05-20T08:20:13.586Z,79.62
2023-05-20T08:22:42.155Z,79.46
2023-05-20T08:25:14.036Z,79.52
2023-05-20T08:27:42.827Z,79.43
2023-05-20T08:30:12.394Z,79.42
2023-05-20T08:32:43.765Z,79.44
2023-05-20T08:35:12.139Z,79.40
2023-05-20T08:37:43.652Z,79.20
2023-05-20T08:40:13.850Z,79.26
2023-05-20T08:42:45.730Z,79.29
2023-05-20T08:45:17.209Z,79.24
2023-05-20T08:47:47.033Z,79.18
2023-05-20T08:50:16.171Z,79.58
2023-05-20T08:52:48.259Z,79.63
2023-05-20T08:55:42.188Z,79.35
2023-05-20T08:58:16.406Z,79.39
2023-05-20T09:00:44.742Z,79.34
2023-05-20T09:03:13.348Z,79.37
2023-05-20T09:05:44.447Z,79.51
2023-05-20T09:08:13.422Z,79.60
2023-05-20T09:10:44.938Z,79.25
2023-05-20T09:13:13.456Z,79.33
2023-05-20T09:15:44.761Z,79.29
2023-05-20T09:18:14.253Z,79.75
2023-05-20T09:20:47.596Z,79.56
2023-05-20T09:23:15.955Z,79.78
2023-05-20T09:25:44.287Z,80.02
2023-05-20T09:28:12.876Z,79.99
2023-05-20T09:30:46.015Z,79.86
2023-05-20T09:33:14.820Z,80.10
2023-05-20T09:35:43.572Z,80.04
2023-05-20T09:38:16.894Z,79.89
2023-05-20T09:40:47.484Z,80.09
2023-05-20T09:43:16.291Z,80.26
2023-05-20T09:45:44.896Z,80.17
2023-05-20T09:48:16.226Z,80.21
2023-05-20T09:50:44.761Z,80.14
2023-05-20T09:53:16.962Z,80.26
2023-05-20T09:55:46.431Z,80.46
2023-05-20T09:58:16.446Z,80.19
2023-05-20T10:00:44.819Z,79.93
2023-05-20T10:03:14.881Z,79.91
2023-05-20T10:05:58.004Z,79.86
2023-05-20T10:08:57.015Z,79.81
2023-05-20T10:12:02.279Z,79.88
2023-05-20T10:14:50.464Z,79.80
2023-05-20T10:17:44.779Z,79.72
2023-05-20T10:20:16.980Z,79.74
2023-05-20T10:22:46.399Z,80.00
2023-05-20T10:28:45.867Z,79.58
2023-05-20T10:31:26.606Z,79.93
2023-05-20T10:33:56.940Z,80.21
2023-05-20T10:36:35.472Z,80.15
2023-05-20T10:39:46.930Z,80.16
2023-05-20T10:42:18.521Z,80.43
2023-05-20T10:44:48.480Z,80.23
2023-05-20T10:47:25.331Z,80.51
2023-05-20T10:49:54.044Z,80.45
2023-05-20T10:52:25.736Z,80.19
2023-05-20T10:55:24.255Z,80.18
2023-05-20T10:58:06.555Z,80.37
2023-05-20T11:01:16.416Z,80.12
2023-05-20T11:03:51.618Z,80.39
2023-05-20T11:06:20.189Z,80.34
2023-05-20T11:09:17.582Z,80.21
2023-05-20T11:11:49.113Z,80.41
2023-05-20T11:14:19.101Z,80.59
2023-05-20T11:16:49.444Z,81.13
2023-05-20T11:19:17.997Z,80.61
2023-05-20T11:22:22.001Z,79.91
2023-05-20T11:28:17.302Z,79.88
2023-05-20T11:31:16.239Z,79.74
2023-05-20T11:33:50.254Z,80.22
2023-05-20T11:36:27.412Z,80.14
2023-05-20T11:39:02.035Z,79.84
2023-05-20T11:44:47.305Z,79.83
2023-05-20T11:47:17.737Z,80.24
2023-05-20T11:50:18.126Z,80.21
2023-05-20T11:53:20.240Z,79.71
2023-05-20T11:55:56.136Z,79.97
2023-05-20T11:58:27.167Z,79.62
2023-05-20T12:01:05.188Z,79.95
2023-05-20T12:04:18.730Z,79.87
2023-05-20T12:06:50.199Z,80.05
2023-05-20T12:09:18.617Z,80.26
2023-05-20T12:15:17.815Z,80.07
2023-05-20T12:17:51.630Z,80.01
2023-05-20T12:20:24.490Z,80.02
2023-05-20T12:23:18.051Z,79.82
2023-05-20T12:25:48.096Z,80.49
2023-05-20T12:28:19.828Z,80.00
2023-05-20T12:30:48.067Z,80.34
2023-05-20T12:33:17.282Z,80.06
2023-05-20T12:35:48.743Z,80.49
2023-05-20T12:38:49.272Z,79.68
2023-05-20T12:41:20.568Z,80.23
2023-05-20T12:49:21.842Z,80.04
2023-05-20T12:51:50.472Z,79.30
2023-05-20T12:54:19.522Z,79.35
2023-05-20T12:56:49.244Z,79.61
2023-05-20T12:59:20.582Z,79.61
2023-05-20T13:01:49.749Z,79.18
2023-05-20T13:04:21.174Z,79.85
2023-05-20T13:06:49.567Z,79.86
2023-05-20T13:09:20.782Z,79.69
2023-05-20T13:11:49.045Z,80.16
2023-05-20T13:14:20.533Z,80.02
2023-05-20T13:16:50.510Z,80.02
2023-05-20T13:19:18.801Z,79.93
2023-05-20T13:21:53.105Z,79.93
2023-05-20T13:24:21.839Z,80.11
2023-05-20T13:26:50.107Z,80.12
2023-05-20T13:29:22.378Z,79.93
2023-05-20T13:32:28.577Z,80.34
2023-05-20T13:34:49.497Z,79.61
2023-05-20T13:37:20.621Z,80.28
2023-05-20T13:39:50.557Z,80.25
2023-05-20T13:42:23.413Z,80.16
2023-05-20T13:50:20.950Z,82.17
2023-05-20T13:52:52.559Z,82.54
2023-05-20T13:55:21.808Z,82.52
2023-05-20T13:57:51.092Z,83.11
2023-05-20T14:02:50.307Z,83.49
2023-05-20T14:05:19.722Z,83.81
2023-05-20T14:07:48.175Z,84.14
2023-05-20T14:10:19.688Z,84.24
2023-05-20T14:12:49.082Z,84.53
2023-05-20T14:15:17.464Z,84.89
2023-05-20T14:17:52.447Z,85.15
2023-05-20T14:20:27.220Z,85.89
2023-05-20T14:23:18.443Z,86.42
2023-05-20T14:25:50.673Z,87.10
2023-05-20T14:28:21.300Z,86.87
2023-05-20T14:30:49.599Z,87.11
2023-05-20T14:33:20.329Z,88.42
2023-05-20T14:35:52.102Z,87.48
2023-05-20T14:38:23.565Z,88.13
2023-05-20T14:40:52.106Z,87.87
2023-05-20T14:43:22.339Z,88.35
2023-05-20T14:45:50.645Z,88.79
2023-05-20T14:48:21.668Z,88.16
2023-05-20T14:50:53.039Z,88.60
2023-05-20T14:53:21.200Z,88.76
2023-05-20T14:55:49.616Z,88.88
2023-05-20T14:58:21.028Z,88.33
2023-05-20T15:00:49.129Z,87.87
2023-05-20T15:03:20.148Z,88.03
2023-05-20T15:05:51.701Z,88.14
2023-05-20T15:08:20.271Z,87.56
2023-05-20T15:10:51.613Z,88.04
2023-05-20T15:13:22.239Z,88.88
2023-05-20T15:15:52.901Z,88.44
2023-05-20T15:18:21.552Z,87.99
2023-05-20T15:20:53.457Z,88.02
2023-05-20T15:23:22.416Z,88.03
2023-05-20T15:25:53.672Z,88.15
2023-05-20T15:28:22.201Z,87.85
2023-05-20T15:30:55.490Z,87.70
2023-05-20T15:33:24.232Z,87.86
2023-05-20T15:35:52.757Z,87.64
2023-05-20T15:38:24.933Z,87.23
2023-05-20T15:40:53.302Z,86.89
2023-05-20T15:43:23.227Z,86.38
2023-05-20T15:45:55.613Z,85.97
2023-05-20T15:48:27.501Z,86.08
2023-05-20T15:59:51.909Z,83.88
2023-05-20T16:02:51.845Z,83.58
2023-05-20T16:05:52.645Z,82.30
2023-05-20T16:08:59.461Z,82.53
2023-05-20T16:11:30.000Z,82.62
2023-05-20T16:14:01.339Z,82.16
2023-05-20T16:16:38.224Z,81.34
2023-05-20T16:21:00.843Z,81.04
2023-05-20T16:39:54.840Z,77.58
2023-05-20T16:53:10.269Z,78.21
2023-05-20T16:53:53.748Z,77.71
2023-05-20T16:59:17.755Z,78.92
2023-05-20T17:01:54.720Z,75.10
2023-05-20T17:04:23.493Z,75.97
2023-05-20T17:06:57.729Z,73.79
2023-05-20T17:09:26.102Z,72.49
2023-05-20T17:11:55.436Z,72.55
2023-05-20T17:14:34.667Z,73.54
2023-05-20T17:17:02.995Z,74.33
2023-05-20T17:19:59.076Z,73.29
2023-05-20T17:22:30.430Z,73.99
2023-05-20T17:24:59.533Z,72.55
2023-05-20T17:28:00.688Z,70.00
2023-05-20T17:33:09.713Z,69.32
2023-05-20T17:35:43.990Z,66.99
2023-05-20T17:41:29.577Z,68.60
2023-05-20T17:43:58.031Z,67.43
2023-05-20T17:46:26.629Z,65.47
2023-05-20T17:48:58.221Z,64.33
2023-05-20T17:54:01.917Z,64.48
2023-05-20T17:56:30.482Z,64.94
2023-05-20T18:01:30.424Z,63.76
2023-05-20T18:04:05.300Z,63.36
2023-05-20T18:06:38.501Z,63.23
2023-05-20T18:09:07.257Z,62.00
2023-05-20T18:12:03.592Z,60.85
2023-05-20T18:19:58.987Z,61.00
2023-05-20T18:22:30.697Z,61.44
2023-05-20T18:25:01.589Z,60.67
2023-05-20T18:27:30.247Z,59.52
2023-05-20T18:30:01.611Z,59.91
2023-05-20T18:33:06.232Z,59.42
2023-05-20T18:39:36.248Z,57.22
2023-05-20T18:42:11.167Z,57.60
2023-05-20T18:45:14.879Z,57.06
2023-05-20T19:21:59.281Z,55.43
2023-05-20T20:30:08.511Z,58.95
2023-05-20T20:33:12.713Z,59.82
2023-05-20T20:36:07.809Z,60.41
2023-05-20T20:44:24.487Z,60.36
2023-05-20T20:48:10.487Z,60.41
2023-05-20T20:56:10.879Z,60.48
2023-05-20T20:59:10.155Z,60.07
2023-05-20T21:04:38.079Z,61.31
2023-05-20T21:07:09.626Z,61.18
2023-05-20T21:09:38.604Z,61.14
2023-05-20T21:12:10.480Z,61.08
2023-05-20T21:14:39.091Z,59.75
2023-05-20T21:17:12.179Z,60.53
2023-05-20T21:22:40.229Z,61.10
2023-05-20T21:25:12.203Z,60.62
2023-05-20T21:28:08.876Z,58.77
2023-05-20T21:30:40.038Z,58.14
2023-05-20T21:33:10.102Z,58.69
2023-05-20T21:35:44.673Z,59.44
2023-05-20T21:38:15.586Z,60.31
2023-05-20T21:44:17.388Z,60.12
2023-05-20T21:46:46.015Z,59.67
2023-05-20T21:49:14.632Z,58.85
2023-05-20T21:52:13.109Z,58.66
2023-05-20T21:55:12.037Z,58.16
2023-05-20T21:57:49.336Z,58.25
2023-05-20T22:00:19.871Z,58.31
2023-05-20T22:03:14.050Z,58.15
2023-05-20T22:06:10.965Z,57.78
2023-05-20T22:11:16.607Z,56.78
2023-05-20T22:17:13.239Z,56.17
2023-05-20T22:19:44.978Z,56.14
2023-05-20T22:22:13.852Z,55.93
2023-05-20T22:28:11.990Z,55.52
2023-05-20T22:33:15.118Z,55.36
2023-05-20T22:42:13.066Z,55.35
2023-05-20T22:50:17.345Z,55.62
2023-05-20T22:52:45.848Z,55.27
2023-05-20T22:55:24.128Z,55.60
2023-05-20T22:58:18.488Z,55.61
2023-05-20T23:01:14.117Z,55.74
2023-05-20T23:03:48.725Z,55.78
2023-05-20T23:06:17.892Z,55.74
2023-05-20T23:15:00.938Z,54.86
2023-05-20T23:21:14.922Z,54.91
2023-05-20T23:29:43.645Z,54.90
2023-05-20T23:32:18.176Z,55.18
2023-05-20T23:35:19.424Z,54.97
2023-05-20T23:41:16.937Z,54.91
2023-05-20T23:44:17.989Z,55.36
2023-05-20T23:50:18.412Z,55.73
2023-05-20T23:53:18.731Z,55.15
2023-05-20T23:56:21.227Z,55.85
